sensor_id;sensor_type;location;lat;lon;timestamp;pressure;altitude;pressure_sealevel;temperature;humidity
41573;BME280;27286;47.870;19.006;2023-02-17T00:02:22;100133.41;;;-0.43;100.00
41573;BME280;27286;47.870;19.006;2023-02-17T00:04:47;100134.25;;;-0.45;100.00
41573;BME280;27286;47.870;19.006;2023-02-17T00:07:13;100133.34;;;-0.50;100.00
41573;BME280;27286;47.870;19.006;2023-02-17T00:09:38;100128.00;;;-0.66;100.00
41573;BME280;27286;47.870;19.006;2023-02-17T00:12:04;100134.00;;;-0.62;100.00
41573;BME280;27286;47.870;19.006;2023-02-17T00:14:29;100135.69;;;-0.63;100.00
41573;BME280;27286;47.870;19.006;2023-02-17T00:16:54;100136.50;;;-0.65;100.00
41573;BME280;27286;47.870;19.006;2023-02-17T00:19:20;100129.56;;;-0.72;100.00
41573;BME280;27286;47.870;19.006;2023-02-17T00:21:49;100129.56;;;-0.74;100.00
41573;BME280;27286;47.870;19.006;2023-02-17T00:24:15;100130.34;;;-0.78;100.00
41573;BME280;27286;47.870;19.006;2023-02-17T00:26:41;100137.19;;;-0.75;100.00
41573;BME280;27286;47.870;19.006;2023-02-17T00:29:06;100125.91;;;-0.88;100.00
41573;BME280;27286;47.870;19.006;2023-02-17T00:31:32;100131.75;;;-0.97;100.00
41573;BME280;27286;47.870;19.006;2023-02-17T00:33:57;100129.06;;;-1.04;100.00
41573;BME280;27286;47.870;19.006;2023-02-17T00:36:24;100136.69;;;-1.07;100.00
41573;BME280;27286;47.870;19.006;2023-02-17T00:38:49;100132.34;;;-1.11;100.00
41573;BME280;27286;47.870;19.006;2023-02-17T00:41:15;100125.38;;;-1.20;100.00
41573;BME280;27286;47.870;19.006;2023-02-17T00:43:41;100134.91;;;-1.13;100.00
41573;BME280;27286;47.870;19.006;2023-02-17T00:46:06;100123.09;;;-1.05;100.00
41573;BME280;27286;47.870;19.006;2023-02-17T00:48:32;100121.38;;;-1.06;100.00
41573;BME280;27286;47.870;19.006;2023-02-17T00:50:58;100124.78;;;-1.05;100.00
41573;BME280;27286;47.870;19.006;2023-02-17T00:53:23;100113.63;;;-1.10;100.00
41573;BME280;27286;47.870;19.006;2023-02-17T00:55:49;100118.78;;;-1.09;100.00
41573;BME280;27286;47.870;19.006;2023-02-17T00:58:14;100117.25;;;-0.99;100.00
41573;BME280;27286;47.870;19.006;2023-02-17T01:00:40;100119.84;;;-0.96;100.00
41573;BME280;27286;47.870;19.006;2023-02-17T01:03:05;100128.72;;;-0.71;100.00
41573;BME280;27286;47.870;19.006;2023-02-17T01:05:31;100127.16;;;-0.63;100.00
41573;BME280;27286;47.870;19.006;2023-02-17T01:07:56;100123.84;;;-0.56;100.00
41573;BME280;27286;47.870;19.006;2023-02-17T01:10:22;100129.75;;;-0.62;100.00
41573;BME280;27286;47.870;19.006;2023-02-17T01:12:47;100124.56;;;-0.66;100.00
41573;BME280;27286;47.870;19.006;2023-02-17T01:15:13;100125.28;;;-0.73;100.00
41573;BME280;27286;47.870;19.006;2023-02-17T01:17:38;100120.91;;;-0.82;100.00
41573;BME280;27286;47.870;19.006;2023-02-17T01:20:04;100119.13;;;-0.86;100.00
41573;BME280;27286;47.870;19.006;2023-02-17T01:22:30;100113.16;;;-0.86;100.00
41573;BME280;27286;47.870;19.006;2023-02-17T01:24:55;100112.22;;;-0.93;100.00
41573;BME280;27286;47.870;19.006;2023-02-17T01:27:21;100118.13;;;-0.97;100.00
41573;BME280;27286;47.870;19.006;2023-02-17T01:29:46;100116.31;;;-1.03;100.00
41573;BME280;27286;47.870;19.006;2023-02-17T01:32:12;100110.25;;;-1.09;100.00
41573;BME280;27286;47.870;19.006;2023-02-17T01:34:37;100103.31;;;-1.16;100.00
41573;BME280;27286;47.870;19.006;2023-02-17T01:37:03;100095.53;;;-1.23;100.00
41573;BME280;27286;47.870;19.006;2023-02-17T01:39:28;100098.88;;;-1.28;100.00
41573;BME280;27286;47.870;19.006;2023-02-17T01:41:55;100095.44;;;-1.30;100.00
41573;BME280;27286;47.870;19.006;2023-02-17T01:44:23;100092.00;;;-1.32;100.00
41573;BME280;27286;47.870;19.006;2023-02-17T01:46:51;100095.41;;;-1.32;100.00
41573;BME280;27286;47.870;19.006;2023-02-17T01:49:33;100085.19;;;-1.32;100.00
41573;BME280;27286;47.870;19.006;2023-02-17T01:54:40;100083.38;;;-1.36;100.00
41573;BME280;27286;47.870;19.006;2023-02-17T01:57:06;100086.69;;;-1.43;100.00
41573;BME280;27286;47.870;19.006;2023-02-17T01:59:32;100083.19;;;-1.48;100.00
41573;BME280;27286;47.870;19.006;2023-02-17T02:02:00;100083.88;;;-1.58;100.00
41573;BME280;27286;47.870;19.006;2023-02-17T02:04:30;100091.38;;;-1.67;100.00
41573;BME280;27286;47.870;19.006;2023-02-17T02:06:56;100084.44;;;-1.73;100.00
41573;BME280;27286;47.870;19.006;2023-02-17T02:09:29;100081.00;;;-1.75;100.00
41573;BME280;27286;47.870;19.006;2023-02-17T02:11:56;100072.50;;;-1.75;100.00
41573;BME280;27286;47.870;19.006;2023-02-17T02:14:24;100073.41;;;-1.70;100.00
41573;BME280;27286;47.870;19.006;2023-02-17T02:28:00;100067.41;;;-1.26;100.00
41573;BME280;27286;47.870;19.006;2023-02-17T02:33:55;100060.47;;;-1.33;100.00
41573;BME280;27286;47.870;19.006;2023-02-17T02:38:34;100063.97;;;-1.28;100.00
41573;BME280;27286;47.870;19.006;2023-02-17T02:41:22;100058.91;;;-1.25;100.00
41573;BME280;27286;47.870;19.006;2023-02-17T02:43:50;100052.94;;;-1.25;100.00
41573;BME280;27286;47.870;19.006;2023-02-17T02:46:16;100052.03;;;-1.29;100.00
41573;BME280;27286;47.870;19.006;2023-02-17T02:48:42;100047.75;;;-1.30;100.00
41573;BME280;27286;47.870;19.006;2023-02-17T03:01:45;100067.94;;;-1.43;100.00
41573;BME280;27286;47.870;19.006;2023-02-17T03:04:32;100069.56;;;-1.50;100.00
41573;BME280;27286;47.870;19.006;2023-02-17T03:07:21;100078.84;;;-1.52;100.00
41573;BME280;27286;47.870;19.006;2023-02-17T03:09:54;100077.13;;;-1.53;100.00
41573;BME280;27286;47.870;19.006;2023-02-17T03:12:22;100075.41;;;-1.54;100.00
41573;BME280;27286;47.870;19.006;2023-02-17T03:14:50;100072.09;;;-1.50;100.00
41573;BME280;27286;47.870;19.006;2023-02-17T03:17:17;100079.78;;;-1.50;100.00
41573;BME280;27286;47.870;19.006;2023-02-17T03:19:43;100077.25;;;-1.48;100.00
41573;BME280;27286;47.870;19.006;2023-02-17T03:22:21;100071.38;;;-1.43;100.00
41573;BME280;27286;47.870;19.006;2023-02-17T03:24:48;100074.28;;;-1.22;100.00
41573;BME280;27286;47.870;19.006;2023-02-17T03:27:13;100063.13;;;-1.27;100.00
41573;BME280;27286;47.870;19.006;2023-02-17T03:29:39;100072.47;;;-1.29;100.00
41573;BME280;27286;47.870;19.006;2023-02-17T03:32:05;100071.66;;;-1.26;100.00
41573;BME280;27286;47.870;19.006;2023-02-17T03:34:31;100071.69;;;-1.23;100.00
41573;BME280;27286;47.870;19.006;2023-02-17T03:36:56;100066.50;;;-1.29;100.00
41573;BME280;27286;47.870;19.006;2023-02-17T03:39:22;100055.44;;;-1.28;100.00
41573;BME280;27286;47.870;19.006;2023-02-17T03:41:47;100058.09;;;-1.22;100.00
41573;BME280;27286;47.870;19.006;2023-02-17T03:44:16;100063.91;;;-1.31;100.00
41573;BME280;27286;47.870;19.006;2023-02-17T03:46:42;100054.66;;;-1.24;100.00
41573;BME280;27286;47.870;19.006;2023-02-17T03:49:07;100056.47;;;-1.17;100.00
41573;BME280;27286;47.870;19.006;2023-02-17T03:51:33;100062.41;;;-1.18;100.00
41573;BME280;27286;47.870;19.006;2023-02-17T03:53:58;100061.63;;;-1.14;100.00
41573;BME280;27286;47.870;19.006;2023-02-17T03:56:23;100063.31;;;-1.16;100.00
41573;BME280;27286;47.870;19.006;2023-02-17T03:58:49;100071.75;;;-1.18;100.00
41573;BME280;27286;47.870;19.006;2023-02-17T04:01:14;100061.31;;;-1.34;100.00
41573;BME280;27286;47.870;19.006;2023-02-17T04:03:40;100073.19;;;-1.36;100.00
41573;BME280;27286;47.870;19.006;2023-02-17T04:06:06;100068.00;;;-1.40;100.00
41573;BME280;27286;47.870;19.006;2023-02-17T04:08:32;100076.50;;;-1.41;100.00
41573;BME280;27286;47.870;19.006;2023-02-17T04:11:01;100080.91;;;-1.33;100.00
41573;BME280;27286;47.870;19.006;2023-02-17T04:13:27;100073.09;;;-1.40;100.00
41573;BME280;27286;47.870;19.006;2023-02-17T04:15:53;100065.19;;;-1.54;100.00
41573;BME280;27286;47.870;19.006;2023-02-17T04:18:19;100058.50;;;-1.49;100.00
41573;BME280;27286;47.870;19.006;2023-02-17T04:20:47;100061.84;;;-1.52;100.00
41573;BME280;27286;47.870;19.006;2023-02-17T04:23:12;100060.84;;;-1.60;100.00
41573;BME280;27286;47.870;19.006;2023-02-17T04:25:39;100054.00;;;-1.62;100.00
41573;BME280;27286;47.870;19.006;2023-02-17T04:28:05;100065.00;;;-1.66;100.00
41573;BME280;27286;47.870;19.006;2023-02-17T04:30:31;100063.34;;;-1.64;100.00
41573;BME280;27286;47.870;19.006;2023-02-17T04:32:57;100062.81;;;-1.45;100.00
41573;BME280;27286;47.870;19.006;2023-02-17T04:35:23;100055.22;;;-1.42;100.00
41573;BME280;27286;47.870;19.006;2023-02-17T04:37:49;100057.09;;;-1.32;100.00
41573;BME280;27286;47.870;19.006;2023-02-17T04:40:14;100065.63;;;-1.31;100.00
41573;BME280;27286;47.870;19.006;2023-02-17T04:42:40;100070.72;;;-1.31;100.00
41573;BME280;27286;47.870;19.006;2023-02-17T04:45:06;100071.75;;;-1.18;100.00
41573;BME280;27286;47.870;19.006;2023-02-17T04:47:32;100066.63;;;-1.20;100.00
41573;BME280;27286;47.870;19.006;2023-02-17T04:49:57;100060.78;;;-1.13;100.00
41573;BME280;27286;47.870;19.006;2023-02-17T04:52:23;100061.72;;;-1.08;100.00
41573;BME280;27286;47.870;19.006;2023-02-17T04:54:48;100053.13;;;-1.13;100.00
41573;BME280;27286;47.870;19.006;2023-02-17T04:57:14;100054.03;;;-1.09;100.00
41573;BME280;27286;47.870;19.006;2023-02-17T04:59:39;100048.09;;;-1.08;100.00
41573;BME280;27286;47.870;19.006;2023-02-17T05:02:04;100049.00;;;-1.03;100.00
41573;BME280;27286;47.870;19.006;2023-02-17T05:04:30;100052.41;;;-1.04;100.00
41573;BME280;27286;47.870;19.006;2023-02-17T05:06:55;100068.69;;;-0.99;100.00
41573;BME280;27286;47.870;19.006;2023-02-17T05:09:21;100062.66;;;-1.01;100.00
41573;BME280;27286;47.870;19.006;2023-02-17T05:11:46;100063.59;;;-0.98;100.00
41573;BME280;27286;47.870;19.006;2023-02-17T05:14:12;100059.41;;;-0.91;100.00
41573;BME280;27286;47.870;19.006;2023-02-17T05:16:37;100059.41;;;-0.91;100.00
41573;BME280;27286;47.870;19.006;2023-02-17T05:19:03;100061.13;;;-0.92;100.00
41573;BME280;27286;47.870;19.006;2023-02-17T05:21:28;100059.66;;;-0.76;100.00
41573;BME280;27286;47.870;19.006;2023-02-17T05:23:54;100061.44;;;-0.69;100.00
41573;BME280;27286;47.870;19.006;2023-02-17T05:26:19;100056.28;;;-0.72;100.00
41573;BME280;27286;47.870;19.006;2023-02-17T05:28:44;100062.41;;;-0.62;100.00
41573;BME280;27286;47.870;19.006;2023-02-17T05:31:10;100069.31;;;-0.55;100.00
41573;BME280;27286;47.870;19.006;2023-02-17T05:33:36;100066.91;;;-0.43;100.00
41573;BME280;27286;47.870;19.006;2023-02-17T05:36:07;100059.22;;;-0.44;100.00
41573;BME280;27286;47.870;19.006;2023-02-17T05:38:33;100059.09;;;-0.52;100.00
41573;BME280;27286;47.870;19.006;2023-02-17T05:40:58;100060.88;;;-0.49;100.00
41573;BME280;27286;47.870;19.006;2023-02-17T05:43:24;100061.81;;;-0.41;100.00
41573;BME280;27286;47.870;19.006;2023-02-17T05:45:49;100060.09;;;-0.42;100.00
41573;BME280;27286;47.870;19.006;2023-02-17T05:48:15;100071.19;;;-0.42;100.00
41573;BME280;27286;47.870;19.006;2023-02-17T05:50:40;100068.69;;;-0.37;100.00
41573;BME280;27286;47.870;19.006;2023-02-17T05:53:06;100062.69;;;-0.41;100.00
41573;BME280;27286;47.870;19.006;2023-02-17T05:55:31;100065.22;;;-0.42;100.00
41573;BME280;27286;47.870;19.006;2023-02-17T05:57:58;100065.25;;;-0.38;100.00
41573;BME280;27286;47.870;19.006;2023-02-17T06:00:23;100057.56;;;-0.41;100.00
41573;BME280;27286;47.870;19.006;2023-02-17T06:02:49;100067.09;;;-0.31;100.00
41573;BME280;27286;47.870;19.006;2023-02-17T06:05:15;100074.78;;;-0.27;100.00
41573;BME280;27286;47.870;19.006;2023-02-17T06:07:41;100075.75;;;-0.18;100.00
41573;BME280;27286;47.870;19.006;2023-02-17T06:10:07;100074.22;;;-0.04;99.64
41573;BME280;27286;47.870;19.006;2023-02-17T06:12:33;100083.66;;;0.01;99.28
41573;BME280;27286;47.870;19.006;2023-02-17T06:14:58;100076.06;;;0.10;99.00
41573;BME280;27286;47.870;19.006;2023-02-17T06:17:24;100069.28;;;0.15;98.72
41573;BME280;27286;47.870;19.006;2023-02-17T06:19:49;100073.69;;;0.25;98.41
41573;BME280;27286;47.870;19.006;2023-02-17T06:22:15;100082.38;;;0.39;97.68
41573;BME280;27286;47.870;19.006;2023-02-17T06:24:40;100100.41;;;0.50;97.06
41573;BME280;27286;47.870;19.006;2023-02-17T06:27:06;100088.50;;;0.53;96.74
41573;BME280;27286;47.870;19.006;2023-02-17T06:29:31;100085.94;;;0.55;97.04
41573;BME280;27286;47.870;19.006;2023-02-17T06:31:57;100099.69;;;0.65;96.63
41573;BME280;27286;47.870;19.006;2023-02-17T06:34:22;100106.53;;;0.67;96.44
41573;BME280;27286;47.870;19.006;2023-02-17T06:36:48;100098.06;;;0.74;96.74
41573;BME280;27286;47.870;19.006;2023-02-17T06:39:13;100075.75;;;0.64;96.21
41573;BME280;27286;47.870;19.006;2023-02-17T06:41:38;100108.44;;;0.86;96.07
41573;BME280;27286;47.870;19.006;2023-02-17T06:44:04;100105.94;;;0.93;96.07
41573;BME280;27286;47.870;19.006;2023-02-17T06:46:29;100103.47;;;1.03;95.67
41573;BME280;27286;47.870;19.006;2023-02-17T06:48:55;100108.63;;;1.11;94.20
41573;BME280;27286;47.870;19.006;2023-02-17T06:51:20;100114.63;;;1.13;93.97
41573;BME280;27286;47.870;19.006;2023-02-17T06:53:46;100109.53;;;1.17;93.86
41573;BME280;27286;47.870;19.006;2023-02-17T06:56:11;100106.13;;;1.18;94.43
41573;BME280;27286;47.870;19.006;2023-02-17T06:58:37;100113.00;;;1.23;94.66
41573;BME280;27286;47.870;19.006;2023-02-17T07:01:03;100113.88;;;1.23;93.86
41573;BME280;27286;47.870;19.006;2023-02-17T07:03:30;100115.59;;;1.26;93.86
41573;BME280;27286;47.870;19.006;2023-02-17T07:05:57;100114.75;;;1.28;93.46
41573;BME280;27286;47.870;19.006;2023-02-17T07:08:23;100108.81;;;1.35;93.11
41573;BME280;27286;47.870;19.006;2023-02-17T07:10:49;100111.44;;;1.44;91.94
41573;BME280;27286;47.870;19.006;2023-02-17T07:13:14;100114.03;;;1.50;91.89
41573;BME280;27286;47.870;19.006;2023-02-17T07:15:40;100105.53;;;1.56;92.28
41573;BME280;27286;47.870;19.006;2023-02-17T07:18:05;100094.44;;;1.62;92.07
41573;BME280;27286;47.870;19.006;2023-02-17T07:20:31;100102.16;;;1.68;91.39
41573;BME280;27286;47.870;19.006;2023-02-17T07:22:57;100097.00;;;1.65;91.21
41573;BME280;27286;47.870;19.006;2023-02-17T07:25:23;100097.91;;;1.68;91.92
41573;BME280;27286;47.870;19.006;2023-02-17T07:27:48;100091.09;;;1.75;91.42
41573;BME280;27286;47.870;19.006;2023-02-17T07:30:14;100081.69;;;1.85;91.34
41573;BME280;27286;47.870;19.006;2023-02-17T07:32:40;100084.31;;;1.92;91.06
41573;BME280;27286;47.870;19.006;2023-02-17T07:35:05;100078.34;;;2.01;90.36
41573;BME280;27286;47.870;19.006;2023-02-17T07:37:31;100084.38;;;2.09;90.24
41573;BME280;27286;47.870;19.006;2023-02-17T07:39:56;100084.38;;;2.15;89.95
41573;BME280;27286;47.870;19.006;2023-02-17T07:42:22;100069.88;;;2.28;88.69
41573;BME280;27286;47.870;19.006;2023-02-17T07:44:48;100064.75;;;2.43;88.65
41573;BME280;27286;47.870;19.006;2023-02-17T07:47:13;100069.94;;;2.60;86.97
41573;BME280;27286;47.870;19.006;2023-02-17T07:49:38;100081.06;;;2.80;85.28
41573;BME280;27286;47.870;19.006;2023-02-17T07:52:04;100078.50;;;3.01;84.22
41573;BME280;27286;47.870;19.006;2023-02-17T07:54:30;100086.25;;;3.03;83.59
41573;BME280;27286;47.870;19.006;2023-02-17T07:56:55;100082.78;;;3.21;82.79
41573;BME280;27286;47.870;19.006;2023-02-17T07:59:20;100077.38;;;4.09;79.35
41573;BME280;27286;47.870;19.006;2023-02-17T08:01:46;100067.13;;;5.23;73.67
41573;BME280;27286;47.870;19.006;2023-02-17T08:04:11;100066.53;;;4.92;73.14
41573;BME280;27286;47.870;19.006;2023-02-17T08:06:37;100060.25;;;5.22;72.37
41573;BME280;27286;47.870;19.006;2023-02-17T08:09:08;100066.72;;;4.70;73.90
41573;BME280;27286;47.870;19.006;2023-02-17T08:11:52;100080.31;;;4.91;73.65
41573;BME280;27286;47.870;19.006;2023-02-17T08:14:36;100079.47;;;4.84;73.69
41573;BME280;27286;47.870;19.006;2023-02-17T08:17:02;100087.78;;;5.20;72.63
41573;BME280;27286;47.870;19.006;2023-02-17T08:19:27;100082.56;;;6.09;69.31
41573;BME280;27286;47.870;19.006;2023-02-17T08:21:53;100097.94;;;7.32;64.58
41573;BME280;27286;47.870;19.006;2023-02-17T08:24:18;100097.94;;;6.79;64.61
41573;BME280;27286;47.870;19.006;2023-02-17T08:26:45;100103.09;;;7.33;62.78
41573;BME280;27286;47.870;19.006;2023-02-17T08:29:11;100091.88;;;6.80;64.17
41573;BME280;27286;47.870;19.006;2023-02-17T08:31:36;100081.81;;;6.62;66.07
41573;BME280;27286;47.870;19.006;2023-02-17T08:34:04;100081.34;;;6.34;68.29
41573;BME280;27286;47.870;19.006;2023-02-17T08:36:30;100087.16;;;6.50;68.31
41573;BME280;27286;47.870;19.006;2023-02-17T08:38:56;100092.56;;;6.33;68.87
41573;BME280;27286;47.870;19.006;2023-02-17T08:41:34;100094.00;;;6.55;67.82
41573;BME280;27286;47.870;19.006;2023-02-17T08:44:05;100094.84;;;6.56;68.51
41573;BME280;27286;47.870;19.006;2023-02-17T08:46:31;100097.56;;;6.45;67.50
41573;BME280;27286;47.870;19.006;2023-02-17T08:48:57;100097.69;;;6.36;68.41
41573;BME280;27286;47.870;19.006;2023-02-17T08:51:23;100087.38;;;6.33;68.74
41573;BME280;27286;47.870;19.006;2023-02-17T08:53:52;100091.09;;;6.14;70.29
41573;BME280;27286;47.870;19.006;2023-02-17T08:56:19;100089.31;;;6.17;68.95
41573;BME280;27286;47.870;19.006;2023-02-17T08:58:45;100088.19;;;6.37;68.74
41573;BME280;27286;47.870;19.006;2023-02-17T09:01:10;100081.03;;;6.57;68.16
41573;BME280;27286;47.870;19.006;2023-02-17T09:03:37;100066.69;;;6.91;65.45
41573;BME280;27286;47.870;19.006;2023-02-17T09:06:04;100076.50;;;7.23;64.42
41573;BME280;27286;47.870;19.006;2023-02-17T09:08:30;100075.06;;;7.07;65.52
41573;BME280;27286;47.870;19.006;2023-02-17T09:10:55;100073.44;;;7.00;66.52
41573;BME280;27286;47.870;19.006;2023-02-17T09:13:20;100066.84;;;6.82;67.21
41573;BME280;27286;47.870;19.006;2023-02-17T09:15:46;100063.63;;;6.67;67.37
41573;BME280;27286;47.870;19.006;2023-02-17T09:18:12;100058.44;;;6.67;67.00
41573;BME280;27286;47.870;19.006;2023-02-17T09:20:38;100065.38;;;7.17;65.56
41573;BME280;27286;47.870;19.006;2023-02-17T09:23:04;100054.66;;;10.82;54.54
41573;BME280;27286;47.870;19.006;2023-02-17T09:25:29;100052.00;;;13.97;45.83
41573;BME280;27286;47.870;19.006;2023-02-17T09:27:55;100046.56;;;15.63;40.32
41573;BME280;27286;47.870;19.006;2023-02-17T09:30:20;100035.88;;;15.67;39.37
41573;BME280;27286;47.870;19.006;2023-02-17T09:32:46;100047.38;;;12.82;44.96
41573;BME280;27286;47.870;19.006;2023-02-17T09:35:14;100055.50;;;11.34;48.85
41573;BME280;27286;47.870;19.006;2023-02-17T09:37:39;100048.38;;;11.14;49.98
41573;BME280;27286;47.870;19.006;2023-02-17T09:40:06;100053.41;;;10.94;50.41
41573;BME280;27286;47.870;19.006;2023-02-17T09:42:37;100048.16;;;10.67;51.26
41573;BME280;27286;47.870;19.006;2023-02-17T09:45:08;100041.78;;;10.49;51.27
41573;BME280;27286;47.870;19.006;2023-02-17T09:47:39;100042.19;;;10.06;52.25
41573;BME280;27286;47.870;19.006;2023-02-17T09:50:13;100044.00;;;9.75;53.84
41573;BME280;27286;47.870;19.006;2023-02-17T09:55:54;100030.28;;;9.37;56.00
41573;BME280;27286;47.870;19.006;2023-02-17T09:58:29;100040.31;;;9.18;56.73
41573;BME280;27286;47.870;19.006;2023-02-17T10:00:57;100041.66;;;8.99;58.04
41573;BME280;27286;47.870;19.006;2023-02-17T10:03:33;100031.41;;;8.94;57.25
41573;BME280;27286;47.870;19.006;2023-02-17T10:09:33;100026.09;;;8.99;56.78
41573;BME280;27286;47.870;19.006;2023-02-17T10:12:03;100023.72;;;8.90;57.52
41573;BME280;27286;47.870;19.006;2023-02-17T10:17:07;100014.06;;;8.61;58.20
41573;BME280;27286;47.870;19.006;2023-02-17T10:19:52;100002.91;;;8.56;58.49
41573;BME280;27286;47.870;19.006;2023-02-17T10:22:21;100001.25;;;8.89;58.78
41573;BME280;27286;47.870;19.006;2023-02-17T10:24:47;99992.84;;;9.44;55.59
41573;BME280;27286;47.870;19.006;2023-02-17T10:32:40;99971.94;;;8.84;56.70
41573;BME280;27286;47.870;19.006;2023-02-17T10:35:22;99974.81;;;8.73;57.56
41573;BME280;27286;47.870;19.006;2023-02-17T10:40:48;99974.16;;;8.65;57.25
41573;BME280;27286;47.870;19.006;2023-02-17T10:43:21;99968.69;;;8.77;56.08
41573;BME280;27286;47.870;19.006;2023-02-17T10:45:49;99961.53;;;8.85;56.09
41573;BME280;27286;47.870;19.006;2023-02-17T10:48:43;99941.25;;;8.99;55.97
41573;BME280;27286;47.870;19.006;2023-02-17T10:51:14;99939.31;;;9.08;55.68
41573;BME280;27286;47.870;19.006;2023-02-17T10:53:43;99926.25;;;9.11;55.75
41573;BME280;27286;47.870;19.006;2023-02-17T10:56:13;99931.53;;;9.06;55.30
41573;BME280;27286;47.870;19.006;2023-02-17T11:01:12;99925.97;;;9.20;55.28
41573;BME280;27286;47.870;19.006;2023-02-17T11:03:38;99925.38;;;9.41;53.76
41573;BME280;27286;47.870;19.006;2023-02-17T11:08:49;99927.75;;;9.78;51.86
41573;BME280;27286;47.870;19.006;2023-02-17T11:11:18;99925.44;;;9.97;50.76
41573;BME280;27286;47.870;19.006;2023-02-17T11:19:03;99916.75;;;10.26;49.87
41573;BME280;27286;47.870;19.006;2023-02-17T11:21:29;99908.91;;;10.28;49.05
41573;BME280;27286;47.870;19.006;2023-02-17T11:23:59;99914.09;;;10.28;50.17
41573;BME280;27286;47.870;19.006;2023-02-17T11:26:30;99909.06;;;10.21;49.87
41573;BME280;27286;47.870;19.006;2023-02-17T11:31:32;99897.47;;;10.32;49.85
41573;BME280;27286;47.870;19.006;2023-02-17T11:33:58;99895.88;;;10.28;50.20
41573;BME280;27286;47.870;19.006;2023-02-17T11:36:27;99893.22;;;10.29;49.43
41573;BME280;27286;47.870;19.006;2023-02-17T11:38:53;99903.38;;;10.37;50.28
41573;BME280;27286;47.870;19.006;2023-02-17T11:41:19;99892.91;;;10.38;50.27
41573;BME280;27286;47.870;19.006;2023-02-17T11:43:56;99893.97;;;10.33;50.86
41573;BME280;27286;47.870;19.006;2023-02-17T11:49:28;99895.34;;;10.16;51.53
41573;BME280;27286;47.870;19.006;2023-02-17T11:55:39;99896.25;;;9.87;53.02
41573;BME280;27286;47.870;19.006;2023-02-17T12:08:46;99881.81;;;9.49;54.56
41573;BME280;27286;47.870;19.006;2023-02-17T12:14:01;99892.56;;;9.37;56.03
41573;BME280;27286;47.870;19.006;2023-02-17T12:17:03;99895.06;;;9.42;55.86
41573;BME280;27286;47.870;19.006;2023-02-17T12:22:59;99888.22;;;9.38;56.31
41573;BME280;27286;47.870;19.006;2023-02-17T12:25:30;99889.16;;;9.35;56.42
41573;BME280;27286;47.870;19.006;2023-02-17T12:33:32;99885.06;;;9.28;57.83
41573;BME280;27286;47.870;19.006;2023-02-17T12:36:04;99886.06;;;9.22;58.91
41573;BME280;27286;47.870;19.006;2023-02-17T12:38:33;99886.44;;;9.10;60.87
41573;BME280;27286;47.870;19.006;2023-02-17T12:41:08;99888.22;;;9.07;62.03
41573;BME280;27286;47.870;19.006;2023-02-17T12:46:23;99891.91;;;8.99;65.31
41573;BME280;27286;47.870;19.006;2023-02-17T12:49:00;99886.66;;;9.01;64.76
41573;BME280;27286;47.870;19.006;2023-02-17T12:51:29;99884.78;;;9.06;65.47
41573;BME280;27286;47.870;19.006;2023-02-17T12:54:16;99865.31;;;9.21;65.21
41573;BME280;27286;47.870;19.006;2023-02-17T12:57:04;99874.72;;;9.26;65.99
41573;BME280;27286;47.870;19.006;2023-02-17T12:59:34;99869.28;;;9.34;66.19
41573;BME280;27286;47.870;19.006;2023-02-17T13:02:11;99873.44;;;9.40;66.75
41573;BME280;27286;47.870;19.006;2023-02-17T13:04:37;99876.72;;;9.46;65.91
41573;BME280;27286;47.870;19.006;2023-02-17T13:07:25;99874.25;;;9.42;67.19
41573;BME280;27286;47.870;19.006;2023-02-17T13:09:57;99884.56;;;9.45;68.66
41573;BME280;27286;47.870;19.006;2023-02-17T13:22:37;99879.66;;;9.63;70.32
41573;BME280;27286;47.870;19.006;2023-02-17T13:25:03;99867.78;;;9.55;70.80
41573;BME280;27286;47.870;19.006;2023-02-17T13:32:43;99848.72;;;9.26;74.32
41573;BME280;27286;47.870;19.006;2023-02-17T13:37:50;99849.88;;;9.16;76.94
41573;BME280;27286;47.870;19.006;2023-02-17T13:42:47;99858.34;;;9.23;77.19
41573;BME280;27286;47.870;19.006;2023-02-17T13:45:15;99850.69;;;9.18;78.44
41573;BME280;27286;47.870;19.006;2023-02-17T13:47:42;99842.31;;;9.09;78.79
41573;BME280;27286;47.870;19.006;2023-02-17T13:50:35;99849.75;;;8.91;79.75
41573;BME280;27286;47.870;19.006;2023-02-17T13:53:05;99850.06;;;8.79;81.27
41573;BME280;27286;47.870;19.006;2023-02-17T13:55:43;99850.34;;;8.68;82.47
41573;BME280;27286;47.870;19.006;2023-02-17T13:58:09;99849.94;;;8.51;84.19
41573;BME280;27286;47.870;19.006;2023-02-17T14:00:35;99844.25;;;8.37;85.12
41573;BME280;27286;47.870;19.006;2023-02-17T14:05:45;99849.31;;;8.06;87.80
41573;BME280;27286;47.870;19.006;2023-02-17T14:10:49;99859.13;;;7.95;89.37
41573;BME280;27286;47.870;19.006;2023-02-17T14:13:15;99852.31;;;7.89;89.86
41573;BME280;27286;47.870;19.006;2023-02-17T14:15:52;99860.28;;;7.81;90.94
41573;BME280;27286;47.870;19.006;2023-02-17T14:18:39;99845.81;;;7.71;91.47
41573;BME280;27286;47.870;19.006;2023-02-17T14:21:24;99855.28;;;7.74;91.30
41573;BME280;27286;47.870;19.006;2023-02-17T14:23:52;99850.88;;;7.77;91.81
41573;BME280;27286;47.870;19.006;2023-02-17T14:26:46;99839.69;;;7.75;92.57
41573;BME280;27286;47.870;19.006;2023-02-17T14:29:13;99840.69;;;7.70;93.00
41573;BME280;27286;47.870;19.006;2023-02-17T14:31:41;99833.91;;;7.64;93.58
41573;BME280;27286;47.870;19.006;2023-02-17T14:34:16;99822.81;;;7.59;94.03
41573;BME280;27286;47.870;19.006;2023-02-17T14:36:48;99824.69;;;7.51;95.04
41573;BME280;27286;47.870;19.006;2023-02-17T14:39:14;99819.56;;;7.49;95.71
41573;BME280;27286;47.870;19.006;2023-02-17T14:41:40;99817.84;;;7.48;96.21
41573;BME280;27286;47.870;19.006;2023-02-17T14:44:06;99816.13;;;7.49;96.20
41573;BME280;27286;47.870;19.006;2023-02-17T14:46:33;99809.38;;;7.42;96.77